sensor_id;sensor_type;location;lat;lon;timestamp;temperature;humidity
19403;DHT22;9837;48.888;8.998;2023-01-19T00:01:00;2.40;65.80
19403;DHT22;9837;48.888;8.998;2023-01-19T00:05:51;2.60;65.80
19403;DHT22;9837;48.888;8.998;2023-01-19T00:10:45;1.80;67.70
19403;DHT22;9837;48.888;8.998;2023-01-19T00:13:12;1.80;67.90
19403;DHT22;9837;48.888;8.998;2023-01-19T00:15:38;2.50;69.00
19403;DHT22;9837;48.888;8.998;2023-01-19T00:20:30;2.50;65.80
19403;DHT22;9837;48.888;8.998;2023-01-19T00:23:00;2.60;65.60
19403;DHT22;9837;48.888;8.998;2023-01-19T00:25:25;2.60;66.30
19403;DHT22;9837;48.888;8.998;2023-01-19T00:27:51;3.00;65.50
19403;DHT22;9837;48.888;8.998;2023-01-19T00:30:16;3.20;63.50
19403;DHT22;9837;48.888;8.998;2023-01-19T00:32:42;3.30;63.30
19403;DHT22;9837;48.888;8.998;2023-01-19T00:35:08;3.00;62.50
19403;DHT22;9837;48.888;8.998;2023-01-19T00:45:14;3.00;63.60
19403;DHT22;9837;48.888;8.998;2023-01-19T00:47:41;3.10;63.10
19403;DHT22;9837;48.888;8.998;2023-01-19T00:50:08;2.40;63.80
19403;DHT22;9837;48.888;8.998;2023-01-19T00:52:39;2.20;65.70
19403;DHT22;9837;48.888;8.998;2023-01-19T00:55:06;2.30;66.00
19403;DHT22;9837;48.888;8.998;2023-01-19T00:57:32;2.20;65.60
19403;DHT22;9837;48.888;8.998;2023-01-19T01:02:23;1.70;67.20
19403;DHT22;9837;48.888;8.998;2023-01-19T01:04:49;1.80;67.70
19403;DHT22;9837;48.888;8.998;2023-01-19T01:07:20;1.60;67.60
19403;DHT22;9837;48.888;8.998;2023-01-19T01:26:47;2.90;62.80
19403;DHT22;9837;48.888;8.998;2023-01-19T01:36:30;2.80;63.10
19403;DHT22;9837;48.888;8.998;2023-01-19T01:38:57;2.90;62.60
19403;DHT22;9837;48.888;8.998;2023-01-19T01:43:53;2.90;62.50
19403;DHT22;9837;48.888;8.998;2023-01-19T01:48:53;2.90;62.50
19403;DHT22;9837;48.888;8.998;2023-01-19T01:51:28;2.90;62.80
19403;DHT22;9837;48.888;8.998;2023-01-19T01:59:06;2.50;62.60
19403;DHT22;9837;48.888;8.998;2023-01-19T02:01:33;2.60;63.40
19403;DHT22;9837;48.888;8.998;2023-01-19T02:22:30;2.80;62.10
19403;DHT22;9837;48.888;8.998;2023-01-19T02:25:03;2.70;61.80
19403;DHT22;9837;48.888;8.998;2023-01-19T02:27:31;2.90;61.90
19403;DHT22;9837;48.888;8.998;2023-01-19T02:29:58;2.80;61.60
19403;DHT22;9837;48.888;8.998;2023-01-19T02:34:49;2.90;61.70
19403;DHT22;9837;48.888;8.998;2023-01-19T02:37:16;2.90;61.70
19403;DHT22;9837;48.888;8.998;2023-01-19T02:39:54;2.90;61.50
19403;DHT22;9837;48.888;8.998;2023-01-19T02:42:24;2.80;61.30
19403;DHT22;9837;48.888;8.998;2023-01-19T02:44:53;2.70;62.10
19403;DHT22;9837;48.888;8.998;2023-01-19T02:49:56;2.10;63.20
19403;DHT22;9837;48.888;8.998;2023-01-19T02:52:23;2.10;63.70
19403;DHT22;9837;48.888;8.998;2023-01-19T02:55:18;2.30;63.80
19403;DHT22;9837;48.888;8.998;2023-01-19T02:57:57;2.00;63.70
19403;DHT22;9837;48.888;8.998;2023-01-19T03:05:56;1.90;66.80
19403;DHT22;9837;48.888;8.998;2023-01-19T03:11:00;2.20;65.30
19403;DHT22;9837;48.888;8.998;2023-01-19T03:13:46;2.30;64.90
19403;DHT22;9837;48.888;8.998;2023-01-19T03:16:39;2.60;63.80
19403;DHT22;9837;48.888;8.998;2023-01-19T03:19:18;2.70;63.10
19403;DHT22;9837;48.888;8.998;2023-01-19T03:21:48;2.60;62.70
19403;DHT22;9837;48.888;8.998;2023-01-19T03:24:16;2.60;62.90
19403;DHT22;9837;48.888;8.998;2023-01-19T03:26:46;2.40;63.20
19403;DHT22;9837;48.888;8.998;2023-01-19T03:39:09;2.00;64.80
19403;DHT22;9837;48.888;8.998;2023-01-19T03:41:36;2.20;64.60
19403;DHT22;9837;48.888;8.998;2023-01-19T03:56:23;2.40;62.80
19403;DHT22;9837;48.888;8.998;2023-01-19T03:58:50;2.40;63.30
19403;DHT22;9837;48.888;8.998;2023-01-19T04:01:17;2.40;63.20
19403;DHT22;9837;48.888;8.998;2023-01-19T04:06:09;2.00;63.30
19403;DHT22;9837;48.888;8.998;2023-01-19T04:11:01;1.80;65.40
19403;DHT22;9837;48.888;8.998;2023-01-19T04:13:27;1.90;65.60
19403;DHT22;9837;48.888;8.998;2023-01-19T04:15:57;1.90;65.50
19403;DHT22;9837;48.888;8.998;2023-01-19T04:45:11;2.00;64.80
19403;DHT22;9837;48.888;8.998;2023-01-19T04:52:34;2.50;63.40
19403;DHT22;9837;48.888;8.998;2023-01-19T04:55:01;2.70;62.90
19403;DHT22;9837;48.888;8.998;2023-01-19T05:12:02;2.90;61.70
19403;DHT22;9837;48.888;8.998;2023-01-19T05:16:55;2.60;61.70
19403;DHT22;9837;48.888;8.998;2023-01-19T05:21:47;2.80;62.00
19403;DHT22;9837;48.888;8.998;2023-01-19T05:26:38;2.40;63.20
19403;DHT22;9837;48.888;8.998;2023-01-19T05:29:04;2.50;63.60
19403;DHT22;9837;48.888;8.998;2023-01-19T05:43:39;2.10;64.40
19403;DHT22;9837;48.888;8.998;2023-01-19T05:48:31;2.50;63.10
19403;DHT22;9837;48.888;8.998;2023-01-19T05:50:58;2.60;62.80
19403;DHT22;9837;48.888;8.998;2023-01-19T05:53:23;2.60;62.30
19403;DHT22;9837;48.888;8.998;2023-01-19T06:03:07;2.60;63.20
19403;DHT22;9837;48.888;8.998;2023-01-19T06:05:33;2.70;62.40
19403;DHT22;9837;48.888;8.998;2023-01-19T06:08:00;2.70;62.20
19403;DHT22;9837;48.888;8.998;2023-01-19T06:10:25;2.40;63.40
19403;DHT22;9837;48.888;8.998;2023-01-19T06:15:18;2.40;63.10
19403;DHT22;9837;48.888;8.998;2023-01-19T06:17:44;2.50;64.60
19403;DHT22;9837;48.888;8.998;2023-01-19T06:20:10;2.40;63.80
19403;DHT22;9837;48.888;8.998;2023-01-19T06:22:35;2.50;64.60
19403;DHT22;9837;48.888;8.998;2023-01-19T06:25:01;2.60;63.90
19403;DHT22;9837;48.888;8.998;2023-01-19T06:27:27;2.30;64.60
19403;DHT22;9837;48.888;8.998;2023-01-19T06:29:52;2.30;65.40
19403;DHT22;9837;48.888;8.998;2023-01-19T06:34:44;2.70;64.00
19403;DHT22;9837;48.888;8.998;2023-01-19T06:37:10;2.60;64.40
19403;DHT22;9837;48.888;8.998;2023-01-19T06:42:05;2.30;64.50
19403;DHT22;9837;48.888;8.998;2023-01-19T06:44:31;1.70;66.40
19403;DHT22;9837;48.888;8.998;2023-01-19T06:54:14;2.20;65.00
19403;DHT22;9837;48.888;8.998;2023-01-19T07:01:34;1.90;66.40
19403;DHT22;9837;48.888;8.998;2023-01-19T07:08:51;2.60;64.20
19403;DHT22;9837;48.888;8.998;2023-01-19T07:13:44;2.70;63.00
19403;DHT22;9837;48.888;8.998;2023-01-19T07:16:15;2.50;63.90
19403;DHT22;9837;48.888;8.998;2023-01-19T07:23:33;1.10;67.70
19403;DHT22;9837;48.888;8.998;2023-01-19T07:25:59;1.10;68.70
19403;DHT22;9837;48.888;8.998;2023-01-19T07:28:29;1.20;69.00
19403;DHT22;9837;48.888;8.998;2023-01-19T07:30:55;1.20;69.70
19403;DHT22;9837;48.888;8.998;2023-01-19T07:33:21;1.50;68.80
19403;DHT22;9837;48.888;8.998;2023-01-19T07:35:49;1.70;67.80
19403;DHT22;9837;48.888;8.998;2023-01-19T07:38:15;1.80;67.60
19403;DHT22;9837;48.888;8.998;2023-01-19T07:40:42;2.20;66.50
19403;DHT22;9837;48.888;8.998;2023-01-19T07:43:08;2.70;63.10
19403;DHT22;9837;48.888;8.998;2023-01-19T07:45:34;2.70;63.30
19403;DHT22;9837;48.888;8.998;2023-01-19T07:48:00;2.60;64.00
19403;DHT22;9837;48.888;8.998;2023-01-19T07:50:26;2.80;64.00
19403;DHT22;9837;48.888;8.998;2023-01-19T07:52:54;7.30;66.40
19403;DHT22;9837;48.888;8.998;2023-01-19T07:55:20;2.80;62.60
19403;DHT22;9837;48.888;8.998;2023-01-19T07:57:49;3.30;63.60
19403;DHT22;9837;48.888;8.998;2023-01-19T08:00:19;2.80;63.20
19403;DHT22;9837;48.888;8.998;2023-01-19T08:02:58;2.50;63.10
19403;DHT22;9837;48.888;8.998;2023-01-19T08:05:23;2.80;64.90
19403;DHT22;9837;48.888;8.998;2023-01-19T08:10:16;2.70;64.50
19403;DHT22;9837;48.888;8.998;2023-01-19T08:12:41;2.60;65.10
19403;DHT22;9837;48.888;8.998;2023-01-19T08:15:08;3.20;64.00
19403;DHT22;9837;48.888;8.998;2023-01-19T08:17:34;3.10;61.60
19403;DHT22;9837;48.888;8.998;2023-01-19T08:22:25;3.00;62.40
19403;DHT22;9837;48.888;8.998;2023-01-19T08:27:17;3.10;62.50
19403;DHT22;9837;48.888;8.998;2023-01-19T08:34:34;3.40;62.90
19403;DHT22;9837;48.888;8.998;2023-01-19T08:37:00;3.40;63.60
19403;DHT22;9837;48.888;8.998;2023-01-19T08:39:26;3.30;62.00
19403;DHT22;9837;48.888;8.998;2023-01-19T08:41:52;3.20;63.10
19403;DHT22;9837;48.888;8.998;2023-01-19T08:44:18;3.40;63.10
19403;DHT22;9837;48.888;8.998;2023-01-19T08:46:43;4.20;61.30
19403;DHT22;9837;48.888;8.998;2023-01-19T08:49:09;4.20;61.80
19403;DHT22;9837;48.888;8.998;2023-01-19T08:51:35;4.40;60.00
19403;DHT22;9837;48.888;8.998;2023-01-19T08:54:02;3.80;60.50
19403;DHT22;9837;48.888;8.998;2023-01-19T08:58:53;3.70;61.90
19403;DHT22;9837;48.888;8.998;2023-01-19T09:03:46;4.30;61.20
19403;DHT22;9837;48.888;8.998;2023-01-19T09:06:14;4.70;59.30
19403;DHT22;9837;48.888;8.998;2023-01-19T09:11:11;3.90;61.20
19403;DHT22;9837;48.888;8.998;2023-01-19T09:13:38;3.80;61.90
19403;DHT22;9837;48.888;8.998;2023-01-19T09:16:05;4.10;61.80
19403;DHT22;9837;48.888;8.998;2023-01-19T09:18:32;4.20;61.20
19403;DHT22;9837;48.888;8.998;2023-01-19T09:20:58;4.60;60.60
19403;DHT22;9837;48.888;8.998;2023-01-19T09:25:59;4.40;59.90
19403;DHT22;9837;48.888;8.998;2023-01-19T09:28:25;4.20;61.60
19403;DHT22;9837;48.888;8.998;2023-01-19T09:30:51;4.20;61.30
19403;DHT22;9837;48.888;8.998;2023-01-19T09:33:18;4.50;61.20
19403;DHT22;9837;48.888;8.998;2023-01-19T09:35:45;4.90;59.90
19403;DHT22;9837;48.888;8.998;2023-01-19T09:38:12;5.00;59.00
19403;DHT22;9837;48.888;8.998;2023-01-19T09:40:42;4.90;59.30
19403;DHT22;9837;48.888;8.998;2023-01-19T09:43:17;4.40;60.00
19403;DHT22;9837;48.888;8.998;2023-01-19T09:45:51;3.80;63.20
19403;DHT22;9837;48.888;8.998;2023-01-19T09:50:53;4.30;61.80
19403;DHT22;9837;48.888;8.998;2023-01-19T09:53:28;4.00;62.50
19403;DHT22;9837;48.888;8.998;2023-01-19T09:55:57;3.80;63.10
19403;DHT22;9837;48.888;8.998;2023-01-19T10:01:01;3.90;63.10
19403;DHT22;9837;48.888;8.998;2023-01-19T10:03:28;3.60;63.70
19403;DHT22;9837;48.888;8.998;2023-01-19T10:06:00;3.80;63.80
19403;DHT22;9837;48.888;8.998;2023-01-19T10:08:42;4.20;62.60
19403;DHT22;9837;48.888;8.998;2023-01-19T10:11:39;4.40;63.30
19403;DHT22;9837;48.888;8.998;2023-01-19T10:14:19;4.40;61.50
19403;DHT22;9837;48.888;8.998;2023-01-19T10:17:04;4.50;62.20
19403;DHT22;9837;48.888;8.998;2023-01-19T10:19:37;4.50;61.10
19403;DHT22;9837;48.888;8.998;2023-01-19T10:24:42;4.00;63.50
19403;DHT22;9837;48.888;8.998;2023-01-19T10:27:16;4.40;62.80
19403;DHT22;9837;48.888;8.998;2023-01-19T10:29:43;4.70;62.00
19403;DHT22;9837;48.888;8.998;2023-01-19T10:32:24;5.20;61.40
19403;DHT22;9837;48.888;8.998;2023-01-19T10:44:43;6.20;58.00
19403;DHT22;9837;48.888;8.998;2023-01-19T10:47:19;6.20;58.80
19403;DHT22;9837;48.888;8.998;2023-01-19T10:50:31;6.10;58.90
19403;DHT22;9837;48.888;8.998;2023-01-19T10:52:59;6.10;58.60
19403;DHT22;9837;48.888;8.998;2023-01-19T10:55:26;6.10;58.40
19403;DHT22;9837;48.888;8.998;2023-01-19T10:57:52;6.00;59.40
19403;DHT22;9837;48.888;8.998;2023-01-19T11:00:41;6.60;59.10
19403;DHT22;9837;48.888;8.998;2023-01-19T11:03:28;6.70;58.10
19403;DHT22;9837;48.888;8.998;2023-01-19T11:08:44;8.80;58.40
19403;DHT22;9837;48.888;8.998;2023-01-19T11:11:10;6.20;58.50
19403;DHT22;9837;48.888;8.998;2023-01-19T11:13:40;6.10;58.90
19403;DHT22;9837;48.888;8.998;2023-01-19T11:16:28;6.20;58.70
19403;DHT22;9837;48.888;8.998;2023-01-19T11:18:55;6.50;57.30
19403;DHT22;9837;48.888;8.998;2023-01-19T11:21:24;6.50;57.90
19403;DHT22;9837;48.888;8.998;2023-01-19T11:23:53;6.60;56.90
19403;DHT22;9837;48.888;8.998;2023-01-19T11:26:46;6.60;57.40
19403;DHT22;9837;48.888;8.998;2023-01-19T11:29:21;6.60;57.60
19403;DHT22;9837;48.888;8.998;2023-01-19T11:31:48;6.60;58.00
19403;DHT22;9837;48.888;8.998;2023-01-19T11:34:40;6.80;57.50
19403;DHT22;9837;48.888;8.998;2023-01-19T11:37:26;6.90;57.50
19403;DHT22;9837;48.888;8.998;2023-01-19T11:39:54;7.00;56.80
19403;DHT22;9837;48.888;8.998;2023-01-19T11:42:21;7.00;56.80
19403;DHT22;9837;48.888;8.998;2023-01-19T11:47:42;7.10;56.80
19403;DHT22;9837;48.888;8.998;2023-01-19T11:53:25;6.90;57.00
19403;DHT22;9837;48.888;8.998;2023-01-19T11:56:10;6.90;57.50
19403;DHT22;9837;48.888;8.998;2023-01-19T11:58:41;7.00;57.80
19403;DHT22;9837;48.888;8.998;2023-01-19T12:01:46;7.00;57.60
19403;DHT22;9837;48.888;8.998;2023-01-19T12:04:17;6.70;58.50
19403;DHT22;9837;48.888;8.998;2023-01-19T12:06:50;6.20;59.90
19403;DHT22;9837;48.888;8.998;2023-01-19T12:09:21;6.20;60.70
19403;DHT22;9837;48.888;8.998;2023-01-19T12:11:56;6.10;61.60
19403;DHT22;9837;48.888;8.998;2023-01-19T12:14:25;5.90;63.10
19403;DHT22;9837;48.888;8.998;2023-01-19T12:16:56;6.00;63.60
19403;DHT22;9837;48.888;8.998;2023-01-19T12:22:21;6.10;64.10
19403;DHT22;9837;48.888;8.998;2023-01-19T12:25:13;6.10;64.10
19403;DHT22;9837;48.888;8.998;2023-01-19T12:27:42;6.10;64.60
19403;DHT22;9837;48.888;8.998;2023-01-19T12:30:22;6.10;64.70
19403;DHT22;9837;48.888;8.998;2023-01-19T12:32:48;6.00;65.00
19403;DHT22;9837;48.888;8.998;2023-01-19T12:41:17;6.10;65.40
19403;DHT22;9837;48.888;8.998;2023-01-19T12:43:43;6.20;64.80
19403;DHT22;9837;48.888;8.998;2023-01-19T12:46:29;6.30;64.40
19403;DHT22;9837;48.888;8.998;2023-01-19T12:49:08;6.20;63.90
19403;DHT22;9837;48.888;8.998;2023-01-19T12:51:34;6.30;64.60
19403;DHT22;9837;48.888;8.998;2023-01-19T12:54:06;6.30;64.50
19403;DHT22;9837;48.888;8.998;2023-01-19T12:56:34;6.50;63.20
19403;DHT22;9837;48.888;8.998;2023-01-19T12:59:01;6.50;62.70
19403;DHT22;9837;48.888;8.998;2023-01-19T13:01:28;6.50;63.40
19403;DHT22;9837;48.888;8.998;2023-01-19T13:03:58;6.60;62.90
19403;DHT22;9837;48.888;8.998;2023-01-19T13:09:33;6.60;62.30
19403;DHT22;9837;48.888;8.998;2023-01-19T13:12:24;6.80;60.40
19403;DHT22;9837;48.888;8.998;2023-01-19T13:14:50;6.90;60.10
19403;DHT22;9837;48.888;8.998;2023-01-19T13:17:51;6.90;60.80
19403;DHT22;9837;48.888;8.998;2023-01-19T13:20:26;6.90;60.00
19403;DHT22;9837;48.888;8.998;2023-01-19T13:23:18;7.00;59.80
19403;DHT22;9837;48.888;8.998;2023-01-19T13:26:21;6.90;59.50
19403;DHT22;9837;48.888;8.998;2023-01-19T13:28:45;6.80;60.10
19403;DHT22;9837;48.888;8.998;2023-01-19T13:31:13;6.90;59.70
19403;DHT22;9837;48.888;8.998;2023-01-19T13:33:46;6.90;59.30
19403;DHT22;9837;48.888;8.998;2023-01-19T13:36:20;6.90;59.20
19403;DHT22;9837;48.888;8.998;2023-01-19T13:38:48;6.80;59.20
19403;DHT22;9837;48.888;8.998;2023-01-19T13:41:17;6.80;59.50
19403;DHT22;9837;48.888;8.998;2023-01-19T13:43:45;6.80;59.40
19403;DHT22;9837;48.888;8.998;2023-01-19T13:46:12;6.90;59.10
19403;DHT22;9837;48.888;8.998;2023-01-19T13:48:38;7.00;58.80
19403;DHT22;9837;48.888;8.998;2023-01-19T13:51:06;6.90;58.60
19403;DHT22;9837;48.888;8.998;2023-01-19T13:53:32;6.90;58.50
19403;DHT22;9837;48.888;8.998;2023-01-19T13:56:11;6.90;58.50
19403;DHT22;9837;48.888;8.998;2023-01-19T13:58:39;6.90;58.70
19403;DHT22;9837;48.888;8.998;2023-01-19T14:01:05;6.60;58.50
19403;DHT22;9837;48.888;8.998;2023-01-19T14:03:31;6.60;59.00
19403;DHT22;9837;48.888;8.998;2023-01-19T14:05:57;6.50;59.20
19403;DHT22;9837;48.888;8.998;2023-01-19T14:08:22;6.50;59.30
19403;DHT22;9837;48.888;8.998;2023-01-19T14:13:23;6.30;59.10
19403;DHT22;9837;48.888;8.998;2023-01-19T14:15:51;6.30;59.70
19403;DHT22;9837;48.888;8.998;2023-01-19T14:21:06;6.10;59.90
19403;DHT22;9837;48.888;8.998;2023-01-19T14:24:05;6.30;59.80
19403;DHT22;9837;48.888;8.998;2023-01-19T14:26:46;6.40;59.70
19403;DHT22;9837;48.888;8.998;2023-01-19T14:29:28;6.30;60.10
19403;DHT22;9837;48.888;8.998;2023-01-19T14:37:00;6.10;60.60
19403;DHT22;9837;48.888;8.998;2023-01-19T14:39:28;9.30;62.90
19403;DHT22;9837;48.888;8.998;2023-01-19T14:41:57;6.30;61.00
19403;DHT22;9837;48.888;8.998;2023-01-19T14:44:31;6.50;59.40
19403;DHT22;9837;48.888;8.998;2023-01-19T14:46:58;6.40;59.80
19403;DHT22;9837;48.888;8.998;2023-01-19T14:49:36;6.50;59.80
19403;DHT22;9837;48.888;8.998;2023-01-19T14:52:15;6.50;59.40
19403;DHT22;9837;48.888;8.998;2023-01-19T14:54:44;6.50;60.00
19403;DHT22;9837;48.888;8.998;2023-01-19T14:57:12;6.40;60.20
19403;DHT22;9837;48.888;8.998;2023-01-19T14:59:38;6.40;60.40
19403;DHT22;9837;48.888;8.998;2023-01-19T15:04:29;6.70;59.20
19403;DHT22;9837;48.888;8.998;2023-01-19T15:06:55;6.60;59.70
19403;DHT22;9837;48.888;8.998;2023-01-19T15:09:21;6.70;59.00
19403;DHT22;9837;48.888;8.998;2023-01-19T15:11:47;6.70;59.00
19403;DHT22;9837;48.888;8.998;2023-01-19T15:16:40;6.70;59.10
19403;DHT22;9837;48.888;8.998;2023-01-19T15:19:10;6.70;59.60
19403;DHT22;9837;48.888;8.998;2023-01-19T15:21:36;6.70;59.50
19403;DHT22;9837;48.888;8.998;2023-01-19T15:24:05;6.60;59.70
19403;DHT22;9837;48.888;8.998;2023-01-19T15:26:30;6.70;59.30
19403;DHT22;9837;48.888;8.998;2023-01-19T15:28:56;6.70;59.90
19403;DHT22;9837;48.888;8.998;2023-01-19T15:31:22;6.80;59.80
19403;DHT22;9837;48.888;8.998;2023-01-19T15:33:49;6.80;59.70
19403;DHT22;9837;48.888;8.998;2023-01-19T15:36:16;6.80;59.10
19403;DHT22;9837;48.888;8.998;2023-01-19T15:38:42;6.80;59.00
19403;DHT22;9837;48.888;8.998;2023-01-19T15:41:29;6.80;59.10
19403;DHT22;9837;48.888;8.998;2023-01-19T15:43:55;6.80;59.70
19403;DHT22;9837;48.888;8.998;2023-01-19T15:46:22;6.80;59.20
19403;DHT22;9837;48.888;8.998;2023-01-19T15:48:48;6.80;59.70
19403;DHT22;9837;48.888;8.998;2023-01-19T15:51:20;6.70;59.10
19403;DHT22;9837;48.888;8.998;2023-01-19T15:53:46;6.70;59.60
19403;DHT22;9837;48.888;8.998;2023-01-19T15:56:15;6.70;59.70
19403;DHT22;9837;48.888;8.998;2023-01-19T15:58:41;6.60;59.30
19403;DHT22;9837;48.888;8.998;2023-01-19T16:01:15;6.60;59.50
19403;DHT22;9837;48.888;8.998;2023-01-19T16:03:41;6.60;59.40
19403;DHT22;9837;48.888;8.998;2023-01-19T16:06:07;6.60;60.00
19403;DHT22;9837;48.888;8.998;2023-01-19T16:08:33;6.60;59.90
19403;DHT22;9837;48.888;8.998;2023-01-19T16:11:07;6.60;59.90
19403;DHT22;9837;48.888;8.998;2023-01-19T16:13:33;6.60;59.30
19403;DHT22;9837;48.888;8.998;2023-01-19T16:16:16;6.50;59.80
19403;DHT22;9837;48.888;8.998;2023-01-19T16:18:42;6.50;59.70
19403;DHT22;9837;48.888;8.998;2023-01-19T16:21:08;6.20;59.50
19403;DHT22;9837;48.888;8.998;2023-01-19T16:26:02;5.80;60.20
19403;DHT22;9837;48.888;8.998;2023-01-19T16:28:35;5.70;60.90
19403;DHT22;9837;48.888;8.998;2023-01-19T16:31:01;5.70;61.50
19403;DHT22;9837;48.888;8.998;2023-01-19T16:38:21;6.00;59.70
19403;DHT22;9837;48.888;8.998;2023-01-19T16:40:51;6.00;59.80
19403;DHT22;9837;48.888;8.998;2023-01-19T16:46:01;6.10;58.80
19403;DHT22;9837;48.888;8.998;2023-01-19T16:48:27;6.00;59.20
19403;DHT22;9837;48.888;8.998;2023-01-19T16:51:01;5.90;58.70
19403;DHT22;9837;48.888;8.998;2023-01-19T16:53:28;5.90;58.90
19403;DHT22;9837;48.888;8.998;2023-01-19T16:55:54;5.90;59.40
19403;DHT22;9837;48.888;8.998;2023-01-19T17:00:46;5.80;59.10
19403;DHT22;9837;48.888;8.998;2023-01-19T17:03:11;5.70;59.70
19403;DHT22;9837;48.888;8.998;2023-01-19T17:08:03;5.60;59.20
19403;DHT22;9837;48.888;8.998;2023-01-19T17:10:28;5.60;60.10
19403;DHT22;9837;48.888;8.998;2023-01-19T17:15:20;5.40;60.00
19403;DHT22;9837;48.888;8.998;2023-01-19T17:17:45;5.40;60.90
19403;DHT22;9837;48.888;8.998;2023-01-19T17:20:11;5.30;60.10
19403;DHT22;9837;48.888;8.998;2023-01-19T17:25:03;5.40;60.20
19403;DHT22;9837;48.888;8.998;2023-01-19T17:29:54;5.30;60.00
19403;DHT22;9837;48.888;8.998;2023-01-19T17:34:48;5.20;60.70
19403;DHT22;9837;48.888;8.998;2023-01-19T17:37:13;5.20;61.40
19403;DHT22;9837;48.888;8.998;2023-01-19T17:42:05;5.10;60.90
19403;DHT22;9837;48.888;8.998;2023-01-19T17:44:30;5.20;61.60
19403;DHT22;9837;48.888;8.998;2023-01-19T17:46:56;5.20;61.30
19403;DHT22;9837;48.888;8.998;2023-01-19T17:51:50;5.40;59.90
19403;DHT22;9837;48.888;8.998;2023-01-19T17:54:18;5.40;60.60
19403;DHT22;9837;48.888;8.998;2023-01-19T17:59:09;5.40;60.00
19403;DHT22;9837;48.888;8.998;2023-01-19T18:01:37;5.20;59.70
19403;DHT22;9837;48.888;8.998;2023-01-19T18:04:05;5.10;60.00
19403;DHT22;9837;48.888;8.998;2023-01-19T18:06:31;5.10;60.20
19403;DHT22;9837;48.888;8.998;2023-01-19T18:11:26;4.70;61.40
19403;DHT22;9837;48.888;8.998;2023-01-19T18:13:52;5.50;62.70
19403;DHT22;9837;48.888;8.998;2023-01-19T18:16:23;4.90;61.00
19403;DHT22;9837;48.888;8.998;2023-01-19T18:18:51;4.90;61.70
19403;DHT22;9837;48.888;8.998;2023-01-19T18:21:18;5.10;60.70
19403;DHT22;9837;48.888;8.998;2023-01-19T18:23:44;7.90;63.40
19403;DHT22;9837;48.888;8.998;2023-01-19T18:26:17;5.00;60.00
19403;DHT22;9837;48.888;8.998;2023-01-19T18:28:43;5.00;60.70
19403;DHT22;9837;48.888;8.998;2023-01-19T18:31:09;4.80;61.30
19403;DHT22;9837;48.888;8.998;2023-01-19T18:33:36;4.70;61.90
19403;DHT22;9837;48.888;8.998;2023-01-19T18:38:28;4.90;61.80
19403;DHT22;9837;48.888;8.998;2023-01-19T18:41:14;5.00;61.10
19403;DHT22;9837;48.888;8.998;2023-01-19T18:46:09;5.00;61.50
19403;DHT22;9837;48.888;8.998;2023-01-19T18:48:39;5.00;61.60
19403;DHT22;9837;48.888;8.998;2023-01-19T18:51:10;5.00;61.50
19403;DHT22;9837;48.888;8.998;2023-01-19T18:53:37;5.10;62.30
19403;DHT22;9837;48.888;8.998;2023-01-19T18:56:03;9.50;64.70
19403;DHT22;9837;48.888;8.998;2023-01-19T18:58:30;5.30;61.40
19403;DHT22;9837;48.888;8.998;2023-01-19T19:00:57;8.80;63.50
19403;DHT22;9837;48.888;8.998;2023-01-19T19:03:24;5.40;60.60
19403;DHT22;9837;48.888;8.998;2023-01-19T19:05:49;5.20;61.00
19403;DHT22;9837;48.888;8.998;2023-01-19T19:13:10;5.20;62.20
19403;DHT22;9837;48.888;8.998;2023-01-19T19:15:36;5.30;61.70
19403;DHT22;9837;48.888;8.998;2023-01-19T19:22:54;5.50;60.50
19403;DHT22;9837;48.888;8.998;2023-01-19T19:25:21;5.50;60.20
19403;DHT22;9837;48.888;8.998;2023-01-19T19:27:51;5.70;59.90
19403;DHT22;9837;48.888;8.998;2023-01-19T19:30:17;5.70;59.90
19403;DHT22;9837;48.888;8.998;2023-01-19T19:32:44;5.70;59.90
19403;DHT22;9837;48.888;8.998;2023-01-19T19:37:36;5.70;60.00
19403;DHT22;9837;48.888;8.998;2023-01-19T19:40:02;5.70;60.00
19403;DHT22;9837;48.888;8.998;2023-01-19T19:44:54;5.70;59.90
19403;DHT22;9837;48.888;8.998;2023-01-19T19:49:46;5.80;59.70
19403;DHT22;9837;48.888;8.998;2023-01-19T19:57:04;5.80;59.50
19403;DHT22;9837;48.888;8.998;2023-01-19T20:01:56;5.80;59.40
19403;DHT22;9837;48.888;8.998;2023-01-19T20:09:16;5.70;59.80
19403;DHT22;9837;48.888;8.998;2023-01-19T20:11:43;5.60;60.10
19403;DHT22;9837;48.888;8.998;2023-01-19T20:14:11;5.40;60.80
19403;DHT22;9837;48.888;8.998;2023-01-19T20:16:37;5.30;61.40
19403;DHT22;9837;48.888;8.998;2023-01-19T20:21:34;5.30;61.60
19403;DHT22;9837;48.888;8.998;2023-01-19T20:24:06;5.30;62.30
19403;DHT22;9837;48.888;8.998;2023-01-19T20:26:35;5.40;61.40
19403;DHT22;9837;48.888;8.998;2023-01-19T20:29:03;5.40;61.30
19403;DHT22;9837;48.888;8.998;2023-01-19T20:31:34;5.20;61.20
19403;DHT22;9837;48.888;8.998;2023-01-19T20:34:02;5.50;61.30
19403;DHT22;9837;48.888;8.998;2023-01-19T20:38:55;5.50;61.30
19403;DHT22;9837;48.888;8.998;2023-01-19T20:41:37;5.00;61.90
19403;DHT22;9837;48.888;8.998;2023-01-19T20:44:09;5.40;61.70
19403;DHT22;9837;48.888;8.998;2023-01-19T20:46:34;5.50;61.60
19403;DHT22;9837;48.888;8.998;2023-01-19T20:51:26;5.60;61.40
19403;DHT22;9837;48.888;8.998;2023-01-19T21:01:15;5.80;60.70
19403;DHT22;9837;48.888;8.998;2023-01-19T21:18:17;5.60;60.00
19403;DHT22;9837;48.888;8.998;2023-01-19T21:23:09;5.50;60.40
19403;DHT22;9837;48.888;8.998;2023-01-19T21:25:35;5.50;61.10
19403;DHT22;9837;48.888;8.998;2023-01-19T21:28:02;5.50;60.70
19403;DHT22;9837;48.888;8.998;2023-01-19T21:30:27;5.50;60.70
19403;DHT22;9837;48.888;8.998;2023-01-19T21:32:54;5.50;60.70
19403;DHT22;9837;48.888;8.998;2023-01-19T21:37:45;5.60;60.40
19403;DHT22;9837;48.888;8.998;2023-01-19T21:45:06;5.60;60.40
19403;DHT22;9837;48.888;8.998;2023-01-19T21:47:34;5.60;60.30
19403;DHT22;9837;48.888;8.998;2023-01-19T21:54:52;5.60;60.60
19403;DHT22;9837;48.888;8.998;2023-01-19T21:59:44;5.60;60.70
19403;DHT22;9837;48.888;8.998;2023-01-19T22:02:11;5.60;60.50
19403;DHT22;9837;48.888;8.998;2023-01-19T22:07:04;5.70;60.50
19403;DHT22;9837;48.888;8.998;2023-01-19T22:11:56;5.70;60.00
19403;DHT22;9837;48.888;8.998;2023-01-19T22:14:21;5.70;59.90
19403;DHT22;9837;48.888;8.998;2023-01-19T22:21:39;5.60;60.00
19403;DHT22;9837;48.888;8.998;2023-01-19T22:24:05;5.60;60.90
19403;DHT22;9837;48.888;8.998;2023-01-19T22:26:31;5.60;60.40
19403;DHT22;9837;48.888;8.998;2023-01-19T22:28:59;5.60;60.50
19403;DHT22;9837;48.888;8.998;2023-01-19T22:31:26;5.60;60.50
19403;DHT22;9837;48.888;8.998;2023-01-19T22:36:24;5.50;60.50
19403;DHT22;9837;48.888;8.998;2023-01-19T22:38:55;5.50;60.60
19403;DHT22;9837;48.888;8.998;2023-01-19T22:41:35;5.50;60.60
19403;DHT22;9837;48.888;8.998;2023-01-19T22:44:04;5.50;60.60
19403;DHT22;9837;48.888;8.998;2023-01-19T22:46:32;5.50;60.80
19403;DHT22;9837;48.888;8.998;2023-01-19T22:48:58;5.40;61.00
19403;DHT22;9837;48.888;8.998;2023-01-19T22:51:25;5.40;61.30
19403;DHT22;9837;48.888;8.998;2023-01-19T22:53:51;5.40;61.30
19403;DHT22;9837;48.888;8.998;2023-01-19T22:56:19;5.30;61.50
19403;DHT22;9837;48.888;8.998;2023-01-19T22:58:46;5.40;61.60
19403;DHT22;9837;48.888;8.998;2023-01-19T23:01:14;5.20;61.40
19403;DHT22;9837;48.888;8.998;2023-01-19T23:03:41;5.50;61.10
19403;DHT22;9837;48.888;8.998;2023-01-19T23:06:10;5.40;61.80
19403;DHT22;9837;48.888;8.998;2023-01-19T23:08:36;9.90;64.40
19403;DHT22;9837;48.888;8.998;2023-01-19T23:11:10;5.50;61.60
19403;DHT22;9837;48.888;8.998;2023-01-19T23:13:36;5.60;61.40
